Flight Track Log - Related Links

Times and Time Zones

All times are in EDT time to prevent confusion due to time zone crossing. See the JIA2392 flight status page for this flight to view local times or setup timezone preferences in your user account.

Time Position Orientation Groundspeed Altitude Reporting Facility
EDT Latitude Longitude Course Direction KTS MPH feet Rate Location/Type
Sat 08:01:15 AM 35.1927 -80.9309 North  Level FlightAware Approximate
Sat 08:02:15 AM 35.0891 -80.9065 357° North  Level FlightAware Approximate
Sat 08:03:33 AM 35.2886 -80.9192 78° East 206 237 4,000  Level Atlanta Center
Sat 08:04:35 AM 35.3031 -80.8347 98° East 268 308 6,500 2,459 Climbing Atlanta Center
Sat 08:05:35 AM 35.2922 -80.7383 137° Southeast 291 335 9,000 2,000 Climbing Atlanta Center
Sat 08:06:59 AM 35.2167 -80.6525 201° Southwest 325 374 11,300 1,792 Climbing Atlanta Center
Sat 08:07:59 AM 35.1322 -80.6917 201° Southwest 277 319 13,300 1,800 Climbing Atlanta Center
Sat 08:08:59 AM 35.0458 -80.7331 190° South 316 364 14,900 1,702 Climbing Atlanta Center
Sat 08:11:27 AM 34.7847 -80.7894 179° South 373 429 19,200 1,471 Climbing Jacksonville Center
Sat 08:12:27 AM 34.6764 -80.7872 178° South 388 447 20,000 400 Climbing Jacksonville Center
Sat 08:13:27 AM 34.5656 -80.7822 177° South 393 452 20,000  Level Jacksonville Center
Sat 08:14:28 AM 34.4550 -80.7747 175° South 400 460 20,000  Level Jacksonville Center
Sat 08:15:27 AM 34.3464 -80.7625 179° South 401 461 20,000  Level Jacksonville Center
Sat 08:16:27 AM 34.2525 -80.7597 178° South 401 461 20,000 -347 Level Jacksonville Center
Sat 08:17:28 AM 34.1397 -80.7550 178° South 396 456 19,300 -850 Descending Jacksonville Center
Sat 08:18:27 AM 34.0247 -80.7503 178° South 406 467 18,300 -850 Descending Jacksonville Center
Sat 08:19:28 AM 33.9119 -80.7456 178° South 406 467 17,600 -850 Descending Jacksonville Center
Sat 08:20:27 AM 33.8075 -80.7406 161° South 401 461 16,600 -1,008 Descending Jacksonville Center
Sat 08:21:27 AM 33.7067 -80.6981 144° Southeast 395 455 15,600 -1,000 Descending Jacksonville Center
Sat 08:22:27 AM 33.6242 -80.6253 147° Southeast 371 427 14,600 -1,150 Descending Jacksonville Center
Sat 08:23:27 AM 33.5414 -80.5600 145° Southeast 360 414 13,300 -1,300 Descending Jacksonville Center
Sat 08:24:27 AM 33.4631 -80.4950 146° Southeast 355 409 12,000 -1,150 Descending Jacksonville Center
Sat 08:25:27 AM 33.3867 -80.4325 154° Southeast 344 396 11,000 -500 Descending Jacksonville Center
Sat 08:26:27 AM 33.3106 -80.3872 164° South 328 377 11,000 -450 Level Jacksonville Center
Sat 08:27:27 AM 33.2244 -80.3572 165° South 315 362 10,100 -1,350 Descending Jacksonville Center
Sat 08:28:27 AM 33.1406 -80.3300 167° South 310 357 8,300 -1,750 Descending Jacksonville Center
Sat 08:29:27 AM 33.0608 -80.3075 166° South 304 350 6,600 -1,900 Descending Jacksonville Center
Sat 08:30:27 AM 32.9767 -80.2828 161° South 283 326 4,500 -1,550 Descending Jacksonville Center
Sat 08:31:27 AM 32.9094 -80.2550 138° Southeast 270 311 3,500 -800 Descending Jacksonville Center
Sat 08:32:27 AM 32.8667 -80.2092 121° Southeast 220 253 2,900 -600 Descending Jacksonville Center
Sat 08:33:27 AM 32.8406 -80.1581 121° Southeast 198 228 2,300 -600 Descending Jacksonville Center

Login

Don't have an account? Register now (free) for customized features, flight alerts, and more!